createdAt,value
2022-10-14T00:01:06.040Z,16.72
2022-10-14T00:03:34.063Z,16.21
2022-10-14T00:06:04.497Z,16.85
2022-10-14T00:08:30.820Z,16.45
2022-10-14T00:10:57.257Z,16.64
2022-10-14T00:13:23.599Z,16.77
2022-10-14T00:15:49.915Z,16.26
2022-10-14T00:18:16.274Z,16.78
2022-10-14T00:20:42.610Z,16.48
2022-10-14T00:23:09.129Z,16.51
2022-10-14T00:25:38.130Z,16.66
2022-10-14T00:28:04.673Z,16.38
2022-10-14T00:30:30.999Z,16.76
2022-10-14T00:32:57.632Z,16.43
2022-10-14T00:35:23.977Z,16.47
2022-10-14T00:37:50.559Z,16.45
2022-10-14T00:40:17.023Z,16.14
2022-10-14T00:42:43.383Z,16.66
2022-10-14T00:45:15.250Z,16.81
2022-10-14T00:47:43.659Z,16.81
2022-10-14T00:50:12.827Z,16.65
2022-10-14T00:52:39.553Z,16.66
2022-10-14T00:55:24.019Z,16.65
2022-10-14T00:57:50.581Z,16.46
2022-10-14T01:00:19.156Z,16.78
2022-10-14T01:02:47.620Z,16.64
2022-10-14T01:05:15.900Z,16.81
2022-10-14T01:07:59.399Z,16.80
2022-10-14T01:10:41.410Z,16.57
2022-10-14T01:13:29.430Z,16.78
2022-10-14T01:16:14.689Z,16.76
2022-10-14T01:19:04.775Z,16.47
2022-10-14T01:21:51.115Z,16.59
2022-10-14T01:24:58.999Z,16.75
2022-10-14T01:28:09.155Z,16.80
2022-10-14T01:30:46.148Z,16.67
2022-10-14T01:33:26.720Z,16.64
2022-10-14T01:36:07.255Z,16.80
2022-10-14T01:38:41.318Z,16.54
2022-10-14T01:41:21.184Z,16.66
2022-10-14T01:43:50.419Z,16.81
2022-10-14T01:46:19.563Z,16.58
2022-10-14T01:48:51.158Z,16.63
2022-10-14T01:51:23.704Z,16.23
2022-10-14T01:53:57.216Z,16.67
2022-10-14T01:56:24.766Z,16.42
2022-10-14T01:58:53.978Z,16.20
2022-10-14T02:01:20.333Z,16.04
2022-10-14T02:03:47.659Z,16.27
2022-10-14T02:06:21.211Z,16.81
2022-10-14T02:09:02.709Z,16.80
2022-10-14T02:11:38.254Z,16.47
2022-10-14T02:14:14.252Z,16.79
2022-10-14T02:16:45.241Z,16.41
2022-10-14T02:19:28.353Z,16.76
2022-10-14T02:22:19.576Z,16.77
2022-10-14T02:24:53.267Z,16.76
2022-10-14T02:27:22.548Z,16.51
2022-10-14T02:29:50.535Z,16.66
2022-10-14T02:32:20.627Z,16.30
2022-10-14T02:34:50.893Z,16.68
2022-10-14T02:37:19.995Z,16.62
2022-10-14T02:39:54.653Z,16.70
2022-10-14T02:42:21.104Z,16.56
2022-10-14T02:44:58.944Z,16.84
2022-10-14T02:47:25.937Z,16.52
2022-10-14T02:49:52.830Z,16.71
2022-10-14T02:52:20.046Z,16.79
2022-10-14T02:54:46.748Z,16.61
2022-10-14T02:57:13.079Z,16.58
2022-10-14T02:59:42.279Z,16.24
2022-10-14T03:02:08.899Z,16.24
2022-10-14T03:04:35.753Z,16.46
2022-10-14T03:07:02.188Z,16.34
2022-10-14T03:09:28.575Z,16.65
2022-10-14T03:11:54.898Z,16.74
2022-10-14T03:14:21.310Z,16.53
2022-10-14T03:16:47.685Z,16.49
2022-10-14T03:19:14.123Z,16.63
2022-10-14T03:21:40.440Z,16.51
2022-10-14T03:24:06.975Z,16.47
2022-10-14T03:26:33.640Z,16.68
2022-10-14T03:29:00.021Z,16.54
2022-10-14T03:31:26.606Z,16.81
2022-10-14T03:33:53.201Z,16.52
2022-10-14T03:36:19.593Z,16.77
2022-10-14T03:38:45.924Z,16.42
2022-10-14T03:41:12.365Z,16.67
2022-10-14T03:43:38.708Z,16.36
2022-10-14T03:46:05.291Z,16.63
2022-10-14T03:48:31.707Z,16.66
2022-10-14T03:50:58.237Z,16.42
2022-10-14T03:53:24.686Z,16.09
2022-10-14T03:55:51.067Z,16.23
2022-10-14T03:58:17.451Z,16.64
2022-10-14T04:00:44.710Z,16.41
2022-10-14T04:03:11.068Z,16.56
2022-10-14T04:05:37.503Z,16.58
2022-10-14T04:08:04.125Z,16.75
2022-10-14T04:10:31.044Z,16.36
2022-10-14T04:12:57.580Z,16.31
2022-10-14T04:15:24.355Z,16.50
2022-10-14T04:17:50.791Z,16.56
2022-10-14T04:20:17.394Z,16.71
2022-10-14T04:22:43.958Z,16.12
2022-10-14T04:25:10.645Z,16.77
2022-10-14T04:27:37.120Z,16.63
2022-10-14T04:30:04.827Z,16.36
2022-10-14T04:32:31.267Z,16.47
2022-10-14T04:34:57.592Z,16.49
2022-10-14T04:37:23.965Z,16.44
2022-10-14T04:39:50.263Z,16.10
2022-10-14T04:42:16.585Z,16.20
2022-10-14T04:44:42.936Z,16.69
2022-10-14T04:47:09.263Z,16.53
2022-10-14T04:49:35.609Z,16.62
2022-10-14T04:52:01.913Z,16.76
2022-10-14T04:54:28.222Z,16.66
2022-10-14T04:56:54.588Z,16.48
2022-10-14T04:59:20.935Z,16.43
2022-10-14T05:01:47.336Z,16.24
2022-10-14T05:04:14.007Z,16.17
2022-10-14T05:06:40.726Z,16.12
2022-10-14T05:09:07.157Z,16.85
2022-10-14T05:11:33.651Z,16.67
2022-10-14T05:14:00.402Z,16.53
2022-10-14T05:16:26.915Z,16.59
2022-10-14T05:18:53.684Z,16.53
2022-10-14T05:21:19.993Z,16.61
2022-10-14T05:23:46.410Z,16.70
2022-10-14T05:26:12.732Z,16.86
2022-10-14T05:28:39.158Z,16.64
2022-10-14T05:31:06.185Z,16.65
2022-10-14T05:33:33.057Z,16.86
2022-10-14T05:35:59.890Z,16.57
2022-10-14T05:41:11.708Z,16.68
2022-10-14T05:43:38.017Z,16.59
2022-10-14T05:46:04.534Z,16.38
2022-10-14T05:48:32.129Z,16.66
2022-10-14T05:51:02.123Z,16.74
2022-10-14T05:53:28.607Z,16.64
2022-10-14T05:56:08.176Z,16.67
2022-10-14T05:58:34.791Z,16.65
2022-10-14T06:01:06.224Z,16.79
2022-10-14T06:03:33.343Z,16.61
2022-10-14T06:06:00.246Z,16.61
2022-10-14T06:08:27.803Z,16.71
2022-10-14T06:10:54.590Z,16.68
2022-10-14T06:13:22.065Z,16.33
2022-10-14T06:15:48.419Z,16.62
2022-10-14T06:18:14.738Z,16.50
2022-10-14T06:20:41.040Z,16.36
2022-10-14T06:23:07.334Z,16.43
2022-10-14T06:25:34.267Z,16.68
2022-10-14T06:28:05.087Z,16.50
2022-10-14T06:30:32.051Z,16.28
2022-10-14T06:32:58.388Z,16.30
2022-10-14T06:35:24.675Z,16.07
2022-10-14T06:37:50.996Z,16.15
2022-10-14T06:40:17.432Z,16.29
2022-10-14T06:42:43.886Z,16.15
2022-10-14T06:45:10.396Z,16.24
2022-10-14T06:47:36.743Z,15.98
2022-10-14T06:50:03.272Z,16.30
2022-10-14T06:52:29.586Z,16.30
2022-10-14T06:54:55.880Z,16.35
2022-10-14T06:57:22.200Z,16.32
2022-10-14T06:59:48.511Z,16.20
2022-10-14T07:02:14.911Z,16.38
2022-10-14T07:04:41.360Z,16.21
2022-10-14T07:07:08.505Z,16.26
2022-10-14T07:09:35.075Z,16.15
2022-10-14T07:12:01.788Z,16.29
2022-10-14T07:14:28.133Z,16.42
2022-10-14T07:16:54.833Z,16.44
2022-10-14T07:19:21.179Z,16.44
2022-10-14T07:21:47.627Z,16.51
2022-10-14T07:24:14.021Z,16.57
2022-10-14T07:26:40.521Z,16.31
2022-10-14T07:29:06.924Z,16.46
2022-10-14T07:31:33.984Z,16.46
2022-10-14T07:34:01.498Z,16.50
2022-10-14T07:36:28.464Z,16.57
2022-10-14T07:38:55.043Z,16.43
2022-10-14T07:41:24.616Z,16.05
2022-10-14T07:43:54.395Z,16.91
2022-10-14T07:46:29.467Z,16.73
2022-10-14T07:48:57.864Z,16.85
2022-10-14T07:51:25.189Z,16.80
2022-10-14T07:53:52.919Z,16.91
2022-10-14T07:56:19.408Z,16.82
2022-10-14T07:58:46.528Z,17.15
2022-10-14T08:01:15.462Z,17.01
2022-10-14T08:03:42.877Z,16.60
2022-10-14T08:06:09.413Z,16.93
2022-10-14T08:08:35.876Z,17.08
2022-10-14T08:11:11.646Z,17.27
2022-10-14T08:13:43.268Z,17.31
2022-10-14T08:16:14.044Z,17.37
2022-10-14T08:18:40.937Z,17.19
2022-10-14T08:21:07.268Z,17.43
2022-10-14T08:23:33.794Z,17.38
2022-10-14T08:26:00.320Z,17.34
2022-10-14T08:28:26.710Z,17.23
2022-10-14T08:30:53.433Z,17.01
2022-10-14T08:33:20.053Z,17.33
2022-10-14T08:35:50.224Z,17.19
2022-10-14T08:38:24.670Z,17.05
2022-10-14T08:41:12.623Z,17.32
2022-10-14T08:44:07.828Z,17.53
2022-10-14T08:46:59.291Z,17.38
2022-10-14T08:49:28.416Z,17.59
2022-10-14T08:52:18.188Z,17.48
2022-10-14T08:54:48.224Z,17.50
2022-10-14T08:57:19.110Z,17.55
2022-10-14T08:59:45.567Z,17.48
2022-10-14T09:02:33.838Z,17.58
2022-10-14T09:05:02.091Z,17.61
2022-10-14T09:07:30.597Z,17.30
2022-10-14T09:10:06.842Z,17.70
2022-10-14T09:12:35.563Z,17.78
2022-10-14T09:15:22.366Z,17.73
2022-10-14T09:17:54.813Z,17.63
2022-10-14T09:20:24.641Z,17.74
2022-10-14T09:22:59.776Z,17.69
2022-10-14T09:25:26.100Z,17.49
2022-10-14T09:27:52.665Z,17.59
2022-10-14T09:30:19.210Z,17.72
2022-10-14T09:32:53.041Z,17.81
2022-10-14T09:35:42.039Z,17.61
2022-10-14T09:38:09.436Z,17.85
2022-10-14T09:40:40.574Z,17.91
2022-10-14T09:43:16.839Z,17.93
2022-10-14T09:45:50.341Z,17.94
2022-10-14T09:48:42.822Z,17.97
2022-10-14T09:51:17.987Z,17.97
2022-10-14T09:53:48.949Z,17.85
2022-10-14T09:56:17.287Z,17.83
2022-10-14T09:58:50.958Z,17.96
2022-10-14T10:01:20.749Z,18.01
2022-10-14T10:03:48.946Z,17.98
2022-10-14T10:06:22.607Z,17.86
2022-10-14T10:09:01.259Z,18.01
2022-10-14T10:11:37.489Z,17.68
2022-10-14T10:14:25.387Z,18.01
2022-10-14T10:17:12.690Z,17.94
2022-10-14T10:19:43.096Z,17.88
2022-10-14T10:22:24.622Z,18.03
2022-10-14T10:25:12.067Z,17.97
2022-10-14T10:27:46.768Z,17.96
2022-10-14T10:30:22.433Z,18.04
2022-10-14T10:33:16.928Z,18.00
2022-10-14T10:35:58.272Z,17.95
2022-10-14T10:38:55.654Z,17.78
2022-10-14T10:41:43.766Z,17.89
2022-10-14T10:44:26.625Z,17.89
2022-10-14T10:47:17.988Z,17.91
2022-10-14T10:50:10.002Z,17.86
2022-10-14T10:53:18.522Z,17.74
2022-10-14T10:56:07.457Z,17.70
2022-10-14T10:58:58.919Z,17.77
2022-10-14T11:01:38.668Z,17.61
2022-10-14T11:04:33.265Z,17.86
2022-10-14T11:07:26.963Z,17.75
2022-10-14T11:10:42.597Z,17.74
2022-10-14T11:13:51.274Z,17.74
2022-10-14T11:16:33.839Z,17.59
2022-10-14T11:19:14.716Z,17.63
2022-10-14T11:21:56.258Z,17.74
2022-10-14T11:24:54.409Z,17.96
2022-10-14T11:27:31.892Z,18.05
2022-10-14T11:30:14.239Z,18.11
2022-10-14T11:32:52.388Z,18.10
2022-10-14T11:38:07.246Z,18.16
2022-10-14T11:40:49.862Z,18.08
2022-10-14T11:43:36.286Z,18.25
2022-10-14T11:46:16.181Z,18.18
2022-10-14T11:48:48.058Z,18.25
2022-10-14T11:51:57.928Z,18.13
2022-10-14T11:54:47.345Z,18.28
2022-10-14T11:57:35.023Z,18.12
2022-10-14T12:00:39.037Z,18.38
2022-10-14T12:03:43.838Z,18.38
2022-10-14T12:06:12.657Z,18.43
2022-10-14T12:09:19.130Z,18.41
2022-10-14T12:12:17.735Z,18.35
2022-10-14T12:14:51.415Z,18.33
2022-10-14T12:17:27.595Z,18.23
2022-10-14T12:19:55.117Z,17.88
2022-10-14T12:22:25.824Z,17.85
2022-10-14T12:24:55.285Z,18.12
2022-10-14T12:27:24.425Z,18.00
2022-10-14T12:29:52.634Z,18.11
2022-10-14T12:32:28.180Z,18.00
2022-10-14T12:34:56.898Z,17.49
2022-10-14T12:37:31.716Z,18.03
2022-10-14T12:40:07.417Z,18.13
2022-10-14T12:42:51.138Z,18.08
2022-10-14T12:45:21.727Z,18.08
2022-10-14T12:48:02.435Z,18.13
2022-10-14T12:50:34.556Z,18.23
2022-10-14T12:53:35.342Z,17.82
2022-10-14T12:56:04.846Z,18.12
2022-10-14T12:58:42.593Z,18.29
2022-10-14T13:01:23.473Z,18.34
2022-10-14T13:07:44.016Z,18.67
2022-10-14T13:10:35.653Z,18.72
2022-10-14T13:13:47.899Z,18.13
2022-10-14T13:16:25.888Z,18.64
2022-10-14T13:18:53.646Z,18.83
2022-10-14T13:21:35.283Z,18.90
2022-10-14T13:24:06.482Z,18.92
2022-10-14T13:26:38.847Z,18.91
2022-10-14T13:29:17.429Z,18.94
2022-10-14T13:32:10.055Z,18.92
2022-10-14T13:34:53.939Z,18.97
2022-10-14T13:37:35.803Z,18.83
2022-10-14T13:42:51.781Z,18.85
2022-10-14T13:45:22.242Z,18.74
2022-10-14T13:47:49.834Z,18.83
2022-10-14T13:50:23.023Z,19.05
2022-10-14T13:53:00.786Z,18.73
2022-10-14T13:55:27.455Z,18.82
2022-10-14T13:58:13.007Z,18.76
2022-10-14T14:00:50.149Z,18.61
2022-10-14T14:03:28.646Z,18.69
2022-10-14T14:05:56.763Z,18.47
2022-10-14T14:08:41.928Z,18.41
2022-10-14T14:11:17.728Z,18.57
2022-10-14T14:14:00.424Z,18.68
2022-10-14T14:16:31.881Z,18.72
2022-10-14T14:19:13.844Z,18.48
2022-10-14T14:21:40.403Z,18.81
2022-10-14T14:24:16.583Z,18.91
2022-10-14T14:26:42.943Z,18.91
2022-10-14T14:29:21.272Z,18.59
2022-10-14T14:32:06.128Z,18.69
2022-10-14T14:34:35.658Z,18.66
2022-10-14T14:37:23.499Z,18.74
2022-10-14T14:40:03.306Z,18.70
2022-10-14T14:42:40.034Z,18.43
2022-10-14T14:45:22.546Z,18.58
2022-10-14T14:47:51.372Z,18.59
2022-10-14T14:50:31.208Z,18.37
2022-10-14T14:53:03.267Z,18.80
2022-10-14T14:55:47.759Z,18.82
2022-10-14T14:58:26.366Z,18.82
2022-10-14T15:00:54.724Z,18.47
2022-10-14T15:03:24.891Z,18.86
2022-10-14T15:05:59.731Z,18.70
2022-10-14T15:08:29.756Z,18.82
2022-10-14T15:10:57.854Z,19.01
2022-10-14T15:13:38.635Z,19.10
2022-10-14T15:16:05.903Z,19.19
2022-10-14T15:18:32.565Z,19.01
2022-10-14T15:21:07.192Z,19.17
2022-10-14T15:23:42.821Z,19.15
2022-10-14T15:26:30.232Z,19.01
2022-10-14T15:29:26.119Z,18.91
2022-10-14T15:32:01.301Z,19.22
2022-10-14T15:34:28.128Z,19.29
2022-10-14T15:36:54.709Z,19.20
2022-10-14T15:39:21.861Z,19.23
2022-10-14T15:41:48.884Z,19.36
2022-10-14T15:44:15.478Z,19.12
2022-10-14T15:47:02.501Z,19.14
2022-10-14T15:49:47.372Z,19.01
2022-10-14T15:52:15.880Z,18.98
2022-10-14T15:54:42.855Z,18.95
2022-10-14T15:57:12.492Z,19.12
2022-10-14T15:59:42.168Z,19.23
2022-10-14T16:02:25.117Z,18.61
2022-10-14T16:05:18.359Z,19.11
2022-10-14T16:07:38.879Z,19.13
2022-10-14T16:10:07.355Z,19.22
2022-10-14T16:12:33.831Z,18.90
2022-10-14T16:15:01.830Z,18.96
2022-10-14T16:17:28.399Z,18.92
2022-10-14T16:19:54.746Z,18.89
2022-10-14T16:22:21.071Z,18.72
2022-10-14T16:24:47.445Z,18.66
2022-10-14T16:27:13.746Z,18.94
2022-10-14T16:29:40.105Z,19.04
2022-10-14T16:32:06.638Z,18.97
2022-10-14T16:34:32.985Z,18.52
2022-10-14T16:36:59.293Z,18.92
2022-10-14T16:39:25.609Z,18.69
2022-10-14T16:41:51.954Z,18.62
2022-10-14T16:44:24.580Z,18.74
2022-10-14T16:47:11.479Z,18.72
2022-10-14T16:49:38.950Z,18.72
2022-10-14T16:52:06.516Z,18.69
2022-10-14T16:54:33.086Z,18.61
2022-10-14T16:56:59.688Z,18.75
2022-10-14T16:59:28.356Z,18.28
2022-10-14T17:01:54.954Z,18.66
2022-10-14T17:04:21.491Z,18.17
2022-10-14T17:06:47.953Z,18.62
2022-10-14T17:09:15.784Z,18.27
2022-10-14T17:11:42.416Z,18.39
2022-10-14T17:14:12.278Z,18.22
2022-10-14T17:16:38.927Z,18.22
2022-10-14T17:19:05.870Z,18.47
2022-10-14T17:21:32.418Z,18.21
2022-10-14T17:24:02.940Z,18.28
2022-10-14T17:26:31.424Z,18.29
2022-10-14T17:28:58.288Z,18.42
2022-10-14T17:31:25.562Z,18.40
2022-10-14T17:33:52.347Z,18.11
2022-10-14T17:36:33.210Z,18.12
2022-10-14T17:39:00.042Z,18.37
2022-10-14T17:41:28.609Z,18.36
2022-10-14T17:43:57.082Z,18.34
2022-10-14T17:46:24.907Z,18.34
2022-10-14T17:48:53.450Z,18.10
2022-10-14T17:51:23.414Z,18.11
2022-10-14T17:53:55.145Z,18.11
2022-10-14T17:56:21.711Z,18.13
2022-10-14T17:58:52.385Z,18.04
2022-10-14T18:01:21.560Z,18.07
2022-10-14T18:03:59.167Z,18.24
2022-10-14T18:06:30.407Z,18.22
2022-10-14T18:09:01.051Z,18.23
2022-10-14T18:11:35.407Z,18.23
2022-10-14T18:14:15.418Z,18.10
2022-10-14T18:16:43.689Z,18.08
2022-10-14T18:19:15.860Z,17.97
2022-10-14T18:21:43.273Z,18.12
2022-10-14T18:24:11.072Z,18.13
2022-10-14T18:26:39.387Z,18.02
2022-10-14T18:29:05.841Z,17.95
2022-10-14T18:31:32.499Z,18.19
2022-10-14T18:34:01.177Z,17.80
2022-10-14T18:36:30.223Z,18.06
2022-10-14T18:38:59.115Z,18.14
2022-10-14T18:41:25.873Z,18.13
2022-10-14T18:43:52.412Z,17.77
2022-10-14T18:46:21.156Z,17.88
2022-10-14T18:48:51.174Z,18.12
2022-10-14T18:51:20.989Z,18.02
2022-10-14T18:53:48.506Z,18.14
2022-10-14T18:56:17.690Z,17.82
2022-10-14T18:58:45.865Z,17.62
2022-10-14T19:01:14.489Z,18.11
2022-10-14T19:03:41.701Z,18.06
2022-10-14T19:06:10.674Z,18.14
2022-10-14T19:08:44.429Z,17.88
2022-10-14T19:11:24.396Z,18.05
2022-10-14T19:14:01.905Z,18.08
2022-10-14T19:16:30.855Z,17.81
2022-10-14T19:18:59.753Z,18.02
2022-10-14T19:21:29.868Z,17.90
2022-10-14T19:23:57.927Z,18.07
2022-10-14T19:26:26.571Z,17.97
2022-10-14T19:28:53.416Z,17.87
2022-10-14T19:31:22.611Z,17.77
2022-10-14T19:33:48.985Z,17.90
2022-10-14T19:36:17.562Z,17.80
2022-10-14T19:38:54.751Z,17.94
2022-10-14T19:41:21.197Z,17.89
2022-10-14T19:43:47.625Z,17.93
2022-10-14T19:46:14.332Z,17.58
2022-10-14T19:48:40.706Z,17.71
2022-10-14T19:51:10.944Z,18.01
2022-10-14T19:53:38.525Z,18.01
2022-10-14T19:56:09.507Z,17.73
2022-10-14T19:58:38.602Z,17.94
2022-10-14T20:01:17.996Z,17.67
2022-10-14T20:03:44.535Z,17.94
2022-10-14T20:06:12.984Z,17.83
2022-10-14T20:08:39.637Z,17.77
2022-10-14T20:11:08.387Z,17.79
2022-10-14T20:13:35.172Z,17.76
2022-10-14T20:16:02.571Z,17.34
2022-10-14T20:18:29.930Z,17.69
2022-10-14T20:20:57.303Z,17.43
2022-10-14T20:23:25.176Z,17.58
2022-10-14T20:25:51.842Z,17.37
2022-10-14T20:28:21.371Z,17.41
2022-10-14T20:30:48.223Z,17.58
2022-10-14T20:33:14.814Z,17.08
2022-10-14T20:35:41.318Z,17.47
2022-10-14T20:38:07.659Z,17.25
2022-10-14T20:40:35.425Z,17.43
2022-10-14T20:43:02.855Z,17.44
2022-10-14T20:45:29.489Z,17.38
2022-10-14T20:47:55.856Z,17.25
2022-10-14T20:50:22.760Z,16.40
2022-10-14T20:52:49.244Z,16.83
2022-10-14T20:55:15.813Z,17.25
2022-10-14T20:57:42.326Z,16.81
2022-10-14T21:00:09.910Z,17.26
2022-10-14T21:02:36.285Z,17.33
2022-10-14T21:05:02.870Z,16.79
2022-10-14T21:07:29.284Z,16.81
2022-10-14T21:09:55.761Z,17.20
2022-10-14T21:12:22.505Z,17.16
2022-10-14T21:14:49.481Z,17.28
2022-10-14T21:17:15.910Z,17.14
2022-10-14T21:19:42.227Z,17.12
2022-10-14T21:22:09.232Z,17.32
2022-10-14T21:24:36.246Z,16.84
2022-10-14T21:27:02.752Z,17.29
2022-10-14T21:29:29.161Z,17.12
2022-10-14T21:31:55.519Z,16.76
2022-10-14T21:34:24.654Z,17.05
2022-10-14T21:36:50.980Z,17.16
2022-10-14T21:39:18.134Z,17.10
2022-10-14T21:41:45.018Z,17.23
2022-10-14T21:44:15.713Z,17.20
2022-10-14T21:46:42.043Z,17.08
2022-10-14T21:49:10.134Z,17.15
2022-10-14T21:51:37.231Z,17.15
2022-10-14T21:54:04.242Z,17.16
2022-10-14T21:56:30.809Z,17.17
2022-10-14T21:58:57.326Z,17.16
2022-10-14T22:01:27.254Z,17.04
2022-10-14T22:03:57.887Z,16.96
2022-10-14T22:06:25.090Z,17.13
2022-10-14T22:08:53.701Z,17.23
2022-10-14T22:11:37.350Z,17.10
2022-10-14T22:14:05.716Z,17.13
2022-10-14T22:16:32.118Z,16.93
2022-10-14T22:19:01.133Z,17.09
2022-10-14T22:21:29.532Z,17.33
2022-10-14T22:23:56.097Z,17.10
2022-10-14T22:26:24.461Z,17.12
2022-10-14T22:29:04.478Z,17.41
2022-10-14T22:31:34.957Z,16.82
2022-10-14T22:34:04.288Z,16.74
2022-10-14T22:36:31.612Z,17.37
2022-10-14T22:38:59.552Z,16.71
2022-10-14T22:41:29.821Z,17.33
2022-10-14T22:43:59.494Z,17.13
2022-10-14T22:46:28.435Z,17.46
2022-10-14T22:48:58.684Z,17.29
2022-10-14T22:51:30.173Z,17.33
2022-10-14T22:53:56.597Z,17.05
2022-10-14T22:56:26.001Z,17.43
2022-10-14T22:58:57.312Z,17.40
2022-10-14T23:01:25.555Z,17.37
2022-10-14T23:03:51.866Z,17.23
2022-10-14T23:06:18.175Z,17.36
2022-10-14T23:08:44.708Z,17.22
2022-10-14T23:11:19.368Z,17.36
2022-10-14T23:13:45.890Z,17.20
2022-10-14T23:16:18.716Z,17.35
2022-10-14T23:18:46.078Z,17.31
2022-10-14T23:21:16.975Z,17.33
2022-10-14T23:23:44.662Z,17.29
2022-10-14T23:26:13.174Z,17.16
2022-10-14T23:28:40.336Z,17.11
2022-10-14T23:31:15.334Z,17.24
2022-10-14T23:33:42.274Z,16.94
2022-10-14T23:36:11.466Z,17.12
2022-10-14T23:38:38.310Z,17.19
2022-10-14T23:41:05.894Z,16.85
2022-10-14T23:43:32.848Z,17.13
2022-10-14T23:45:59.423Z,17.14
2022-10-14T23:48:26.158Z,16.97
2022-10-14T23:50:52.689Z,16.87
2022-10-14T23:53:19.146Z,16.84
2022-10-14T23:55:45.715Z,16.85
2022-10-14T23:58:12.631Z,16.88
